Don Beauty — 3FVK5 — position and weather

sailwx.info

Track history (hours):
 
Tides and Currents Weather Stations Pressure Air Temp Water Temp Dewpoint Dewpoint Depression Visibility Wind Speed Wind Dir Waves Ship Positions

Don Beauty

Last reported at 2017-Dec-07 16:34 UTC. Time now 2017-Dec-16 01:38 UTC.
Position N 41°17' E 140°11'.
Warning: this ship's position is 8 days out of date.

Length 169 m; draft 9 m.

Type: Cargo ship. MMSI: 351600646.

Date/timePositionNaut miles runAvg speedWind from/ knotsBaromVisibWave heightAir tempDewpointWater temp
2017-Dec-07 16:34N 41°17' E 140°11'110.4
2017-Dec-07 16:29N 41°18' E 140°12'510.1
2017-Dec-07 16:00N 41°21' E 140°18'5 9.7
2017-Dec-07 15:30N 41°24' E 140°23'611.5
2017-Dec-07 15:00N 41°27' E 140°29'611.3
2017-Dec-07 14:29N 41°30' E 140°36'612.7
2017-Dec-07 14:00N 41°34' E 140°42'612.9
2017-Dec-07 13:31N 41°37' E 140°50'612.1
2017-Dec-07 13:00N 41°38' E 140°57'612.0
2017-Dec-07 12:30N 41°38' E 141°06'713.2
2017-Dec-07 12:00N 41°42' E 141°13'713.5
2017-Dec-07 11:30N 41°46' E 141°20'  
2017-Nov-30 18:34N 41°56' E 141°14'0 6.5
2017-Nov-30 18:30N 41°56' E 141°14'4 7.8
2017-Nov-30 18:00N 41°53' E 141°17'4 7.8
2017-Nov-30 17:30N 41°49' E 141°19'4 8.2
2017-Nov-30 17:00N 41°45' E 141°18'4 7.2
2017-Nov-30 16:30N 41°43' E 141°14'4 7.4
2017-Nov-30 16:00N 41°40' E 141°10'4 7.2
2017-Nov-30 15:30N 41°38' E 141°06'4 8.5
2017-Nov-30 15:01N 41°38' E 141°01'4 8.5
2017-Nov-30 14:31N 41°38' E 140°55'4 8.4
2017-Nov-30 14:01N 41°37' E 140°49'4 7.8
2017-Nov-30 13:30N 41°35' E 140°45'4 7.9
2017-Nov-30 13:00N 41°33' E 140°40'4 7.9
2017-Nov-30 12:30N 41°30' E 140°36'4 8.1
2017-Nov-30 12:00N 41°28' E 140°32'5 9.1
2017-Nov-30 11:30N 41°25' E 140°27'713.2
2017-Nov-30 11:00N 41°21' E 140°20'714.2
2017-Nov-30 10:29N 41°17' E 140°12'  
2017-Nov-28 03:40N 34°34' E 130°07'212.4
2017-Nov-28 03:28N 34°33' E 130°04'612.7
2017-Nov-28 02:59N 34°29' E 129°59'1212.9
2017-Nov-28 02:02N 34°21' E 129°47'  
Track history (hours):
 
Tides and Currents Weather Stations Pressure Air Temp Water Temp Dewpoint Dewpoint Depression Visibility Wind Speed Wind Dir Waves Ship Positions

Don Beauty

Last reported at 2017-Dec-07 16:34 UTC. Time now 2017-Dec-16 01:38 UTC.
Position N 41°17' E 140°11'.
Warning: this ship's position is 8 days out of date.

Length 169 m; draft 9 m.

Type: Cargo ship. MMSI: 351600646.

Date/timePositionNaut miles runAvg speedWind from/ knotsBaromVisibWave heightAir tempDewpointWater temp
2017-Dec-07 16:34N 41°17' E 140°11'110.4
2017-Dec-07 16:29N 41°18' E 140°12'510.1
2017-Dec-07 16:00N 41°21' E 140°18'5 9.7
2017-Dec-07 15:30N 41°24' E 140°23'611.5
2017-Dec-07 15:00N 41°27' E 140°29'611.3
2017-Dec-07 14:29N 41°30' E 140°36'612.7
2017-Dec-07 14:00N 41°34' E 140°42'612.9
2017-Dec-07 13:31N 41°37' E 140°50'612.1
2017-Dec-07 13:00N 41°38' E 140°57'612.0
2017-Dec-07 12:30N 41°38' E 141°06'713.2
2017-Dec-07 12:00N 41°42' E 141°13'713.5
2017-Dec-07 11:30N 41°46' E 141°20'  
2017-Nov-30 18:34N 41°56' E 141°14'0 6.5
2017-Nov-30 18:30N 41°56' E 141°14'4 7.8
2017-Nov-30 18:00N 41°53' E 141°17'4 7.8
2017-Nov-30 17:30N 41°49' E 141°19'4 8.2
2017-Nov-30 17:00N 41°45' E 141°18'4 7.2
2017-Nov-30 16:30N 41°43' E 141°14'4 7.4
2017-Nov-30 16:00N 41°40' E 141°10'4 7.2
2017-Nov-30 15:30N 41°38' E 141°06'4 8.5
2017-Nov-30 15:01N 41°38' E 141°01'4 8.5
2017-Nov-30 14:31N 41°38' E 140°55'4 8.4
2017-Nov-30 14:01N 41°37' E 140°49'4 7.8
2017-Nov-30 13:30N 41°35' E 140°45'4 7.9
2017-Nov-30 13:00N 41°33' E 140°40'4 7.9
2017-Nov-30 12:30N 41°30' E 140°36'4 8.1
2017-Nov-30 12:00N 41°28' E 140°32'5 9.1
2017-Nov-30 11:30N 41°25' E 140°27'713.2
2017-Nov-30 11:00N 41°21' E 140°20'714.2
2017-Nov-30 10:29N 41°17' E 140°12'  
2017-Nov-28 03:40N 34°34' E 130°07'212.4
2017-Nov-28 03:28N 34°33' E 130°04'612.7
2017-Nov-28 02:59N 34°29' E 129°59'1212.9
2017-Nov-28 02:02N 34°21' E 129°47'  

Dump ship's entire track history